Time;durP1;ratioP1;P1;durP2;ratioP2;P2;SDS_P1;SDS_P2;PMS_P1;PMS_P2;Temp;Humidity;BMP_temperature;BMP_pressure;BME280_temperature;BME280_humidity;BME280_pressure;Samples;Min_cycle;Max_cycle;Signal;HPM_P1;HPM_P2
2023/08/11 00:00:08;;;;;;;8.50;6.78;;;;;;;;;;5043635;28;20054;-67
2023/08/11 00:02:38;;;;;;;8.90;7.28;;;;;;;;;;5043388;28;20053;-68
2023/08/11 00:05:05;;;;;;;7.68;6.82;;;;;;;;;;5049197;28;20550;-65
2023/08/11 00:07:31;;;;;;;6.93;6.18;;;;;;;;;;5059697;28;20064;-63
2023/08/11 00:09:58;;;;;;;8.65;6.78;;;;;;;;;;5043692;28;20520;-67
2023/08/11 00:12:25;;;;;;;9.77;6.78;;;;;;;;;;5056562;28;20934;-68
2023/08/11 00:14:52;;;;;;;7.68;6.57;;;;;;;;;;5063150;28;20060;-67
2023/08/11 00:17:19;;;;;;;11.07;6.90;;;;;;;;;;5062043;28;20056;-66
2023/08/11 00:19:46;;;;;;;10.02;7.15;;;;;;;;;;5061243;28;20532;-64
2023/08/11 00:22:12;;;;;;;11.88;6.57;;;;;;;;;;5044858;28;20072;-68
2023/08/11 00:24:39;;;;;;;7.60;6.53;;;;;;;;;;5043145;28;20084;-63
2023/08/11 00:27:05;;;;;;;9.80;7.40;;;;;;;;;;5043307;28;20516;-66
2023/08/11 00:29:33;;;;;;;12.25;7.53;;;;;;;;;;5043073;28;20130;-66
2023/08/11 00:32:00;;;;;;;8.48;7.22;;;;;;;;;;5043351;28;20529;-63
2023/08/11 00:34:26;;;;;;;9.57;7.07;;;;;;;;;;5044287;28;20050;-65
2023/08/11 00:36:55;;;;;;;7.80;7.00;;;;;;;;;;5044852;28;20053;-62
2023/08/11 00:39:21;;;;;;;10.93;7.15;;;;;;;;;;5042630;28;20053;-66
2023/08/11 00:41:48;;;;;;;7.28;6.38;;;;;;;;;;5056626;28;20052;-65
2023/08/11 00:44:14;;;;;;;8.82;7.50;;;;;;;;;;5063209;28;20510;-61
2023/08/11 00:46:42;;;;;;;11.05;7.55;;;;;;;;;;5062685;28;20049;-62
2023/08/11 00:49:10;;;;;;;8.00;7.20;;;;;;;;;;5059979;28;20088;-62
2023/08/11 00:51:36;;;;;;;9.45;7.68;;;;;;;;;;5056627;28;20065;-66
2023/08/11 00:54:05;;;;;;;9.02;7.38;;;;;;;;;;5041505;28;20454;-65
2023/08/11 00:56:33;;;;;;;9.43;7.15;;;;;;;;;;5043345;28;20057;-64
2023/08/11 00:58:59;;;;;;;9.43;7.15;;;;;;;;;;5043022;28;20049;-64
2023/08/11 01:01:26;;;;;;;9.77;7.53;;;;;;;;;;5042834;28;20177;-67
2023/08/11 01:03:53;;;;;;;9.23;7.90;;;;;;;;;;5044827;28;20547;-63
2023/08/11 01:06:25;;;;;;;8.65;7.65;;;;;;;;;;5049829;28;20053;-62
2023/08/11 01:08:52;;;;;;;8.40;7.50;;;;;;;;;;5054231;28;20060;-59
2023/08/11 01:11:19;;;;;;;7.97;7.22;;;;;;;;;;5042504;28;20057;-67
2023/08/11 01:13:48;;;;;;;8.10;7.00;;;;;;;;;;5062879;28;20096;-65
2023/08/11 01:16:15;;;;;;;8.70;7.32;;;;;;;;;;5062225;28;20053;-61
2023/08/11 01:18:42;;;;;;;10.32;7.80;;;;;;;;;;5052420;28;20131;-67
2023/08/11 01:21:14;;;;;;;9.98;8.02;;;;;;;;;;5041308;28;20571;-64
2023/08/11 01:23:41;;;;;;;8.48;7.68;;;;;;;;;;5041091;28;20067;-66
2023/08/11 01:26:07;;;;;;;11.45;8.20;;;;;;;;;;5059522;28;20127;-65
2023/08/11 01:28:34;;;;;;;9.40;7.95;;;;;;;;;;5062393;28;21072;-64
2023/08/11 01:31:00;;;;;;;10.45;7.75;;;;;;;;;;5062241;28;20526;-66
2023/08/11 01:33:27;;;;;;;8.48;7.40;;;;;;;;;;5059695;28;20049;-62
2023/08/11 01:35:53;;;;;;;9.15;7.95;;;;;;;;;;5062522;28;20598;-65
2023/08/11 01:38:20;;;;;;;8.48;7.50;;;;;;;;;;5062159;28;20060;-66
2023/08/11 01:40:47;;;;;;;9.30;7.80;;;;;;;;;;5047441;28;20045;-62
2023/08/11 01:43:15;;;;;;;8.70;6.97;;;;;;;;;;5062964;28;20057;-61
2023/08/11 01:45:43;;;;;;;11.55;8.18;;;;;;;;;;5057916;28;20076;-67
2023/08/11 01:48:10;;;;;;;8.52;7.63;;;;;;;;;;5050597;28;20049;-66
2023/08/11 01:50:37;;;;;;;12.23;8.63;;;;;;;;;;5060567;28;20067;-66
2023/08/11 01:53:04;;;;;;;8.90;8.00;;;;;;;;;;5062076;28;20049;-65
2023/08/11 01:55:30;;;;;;;9.60;8.05;;;;;;;;;;5062463;28;20061;-66
2023/08/11 01:57:57;;;;;;;10.25;8.43;;;;;;;;;;5062303;28;20081;-62
2023/08/11 02:00:26;;;;;;;9.45;8.27;;;;;;;;;;5061723;28;20080;-61
2023/08/11 02:02:53;;;;;;;11.48;8.40;;;;;;;;;;5062996;28;20060;-65
2023/08/11 02:05:21;;;;;;;14.15;9.60;;;;;;;;;;5071586;28;20045;-62
2023/08/11 02:07:47;;;;;;;10.75;7.88;;;;;;;;;;5064367;28;20053;-62
2023/08/11 02:10:14;;;;;;;9.95;8.00;;;;;;;;;;5054639;28;20057;-65
2023/08/11 02:12:40;;;;;;;11.18;8.25;;;;;;;;;;5045310;28;20084;-66
2023/08/11 02:15:07;;;;;;;8.98;7.80;;;;;;;;;;5045000;28;20446;-65
2023/08/11 02:17:34;;;;;;;14.63;8.68;;;;;;;;;;5045997;28;20690;-67
2023/08/11 02:20:09;;;;;;;12.90;8.63;;;;;;;;;;5045290;28;20054;-65
2023/08/11 02:22:36;;;;;;;;;;;;;;;;;;5045368;28;20496;-67
2023/08/11 02:25:03;;;;;;;12.73;8.15;;;;;;;;;;5044087;28;47093;-61
2023/08/11 02:27:29;;;;;;;12.35;8.70;;;;;;;;;;5045909;28;20057;-66
2023/08/11 02:29:56;;;;;;;9.50;8.48;;;;;;;;;;5044680;28;20112;-64
2023/08/11 02:32:22;;;;;;;11.07;9.23;;;;;;;;;;5054257;28;20244;-67
2023/08/11 02:34:49;;;;;;;10.40;9.30;;;;;;;;;;5063959;28;20081;-67
2023/08/11 02:37:15;;;;;;;10.05;8.85;;;;;;;;;;5065043;28;20052;-60
2023/08/11 02:39:41;;;;;;;10.40;9.13;;;;;;;;;;5063719;28;20075;-68
2023/08/11 02:42:08;;;;;;;10.23;9.13;;;;;;;;;;5065114;28;20150;-62
2023/08/11 02:44:35;;;;;;;9.82;8.85;;;;;;;;;;5063802;28;20111;-67
2023/08/11 02:47:01;;;;;;;14.85;9.75;;;;;;;;;;5048187;28;20053;-64
2023/08/11 02:49:27;;;;;;;11.05;9.75;;;;;;;;;;5044176;28;20057;-67
2023/08/11 02:51:54;;;;;;;13.32;9.30;;;;;;;;;;5052962;28;20057;-67
2023/08/11 02:54:20;;;;;;;11.07;9.35;;;;;;;;;;5065560;28;20048;-62
2023/08/11 02:56:47;;;;;;;12.25;9.60;;;;;;;;;;5064149;28;20061;-60
2023/08/11 02:59:14;;;;;;;11.00;9.68;;;;;;;;;;5062335;28;20103;-63
2023/08/11 03:01:40;;;;;;;13.60;9.05;;;;;;;;;;5058961;28;20058;-67
2023/08/11 03:04:07;;;;;;;11.73;10.02;;;;;;;;;;5045869;28;20587;-66
2023/08/11 03:06:34;;;;;;;11.40;9.35;;;;;;;;;;5044879;28;20049;-66
2023/08/11 03:09:00;;;;;;;12.43;10.10;;;;;;;;;;5044981;28;20479;-65
2023/08/11 03:11:29;;;;;;;10.98;9.93;;;;;;;;;;5044778;28;20606;-66
2023/08/11 03:13:55;;;;;;;14.48;9.63;;;;;;;;;;5043010;28;20537;-64
2023/08/11 03:16:25;;;;;;;10.75;9.60;;;;;;;;;;5055152;28;20135;-68
2023/08/11 03:18:52;;;;;;;12.65;9.13;;;;;;;;;;5063999;28;20049;-67
2023/08/11 03:21:19;;;;;;;12.25;9.45;;;;;;;;;;5052759;28;20064;-66
2023/08/11 03:23:46;;;;;;;13.73;9.88;;;;;;;;;;5044778;28;20734;-66
2023/08/11 03:26:13;;;;;;;10.27;9.27;;;;;;;;;;5057495;28;20056;-65
2023/08/11 03:28:40;;;;;;;11.48;10.27;;;;;;;;;;5065080;28;20053;-65
2023/08/11 03:31:06;;;;;;;11.95;10.20;;;;;;;;;;5063719;28;20060;-67
2023/08/11 03:33:33;;;;;;;12.35;10.48;;;;;;;;;;5060656;28;20511;-65
2023/08/11 03:35:59;;;;;;;13.55;9.15;;;;;;;;;;5066490;28;20578;-67
2023/08/11 03:38:26;;;;;;;11.82;9.98;;;;;;;;;;5063911;28;20465;-61
2023/08/11 03:40:52;;;;;;;10.35;9.25;;;;;;;;;;5064120;28;20129;-68
2023/08/11 03:43:19;;;;;;;11.50;10.40;;;;;;;;;;5063778;28;20143;-68
2023/08/11 03:45:45;;;;;;;12.73;11.25;;;;;;;;;;5065354;28;20076;-62
2023/08/11 03:48:11;;;;;;;11.00;9.40;;;;;;;;;;5046722;28;20500;-67
2023/08/11 03:50:38;;;;;;;10.85;9.57;;;;;;;;;;5044004;28;20520;-63
2023/08/11 03:53:04;;;;;;;12.10;10.38;;;;;;;;;;5044737;28;20060;-64
2023/08/11 03:55:31;;;;;;;13.48;10.80;;;;;;;;;;5043179;28;20057;-66
2023/08/11 03:57:57;;;;;;;12.13;10.85;;;;;;;;;;5043913;28;20540;-66
2023/08/11 04:00:24;;;;;;;13.90;10.77;;;;;;;;;;5057542;28;20170;-65
2023/08/11 04:02:50;;;;;;;13.23;11.05;;;;;;;;;;5062349;28;20466;-68
2023/08/11 04:05:17;;;;;;;12.32;10.98;;;;;;;;;;5049470;28;20053;-67
2023/08/11 04:07:43;;;;;;;11.05;9.98;;;;;;;;;;5043652;28;20530;-67
2023/08/11 04:10:15;;;;;;;12.88;10.70;;;;;;;;;;5043110;28;20053;-61
2023/08/11 04:12:41;;;;;;;11.15;9.93;;;;;;;;;;5051919;28;20068;-67
2023/08/11 04:15:08;;;;;;;12.57;10.63;;;;;;;;;;5063998;28;20053;-67
2023/08/11 04:17:36;;;;;;;15.15;10.23;;;;;;;;;;5063335;28;20053;-65
2023/08/11 04:20:12;;;;;;;14.30;11.15;;;;;;;;;;5061467;28;20056;-62
2023/08/11 04:22:40;;;;;;;12.98;11.20;;;;;;;;;;5057827;28;20140;-65
2023/08/11 04:25:07;;;;;;;14.73;10.95;;;;;;;;;;5062839;28;20135;-67
2023/08/11 04:27:34;;;;;;;14.75;11.80;;;;;;;;;;5056738;28;20551;-63
2023/08/11 04:30:01;;;;;;;12.82;11.27;;;;;;;;;;5044105;28;20063;-67
2023/08/11 04:32:28;;;;;;;16.95;11.27;;;;;;;;;;5047702;28;20112;-62
2023/08/11 04:34:54;;;;;;;12.40;11.15;;;;;;;;;;5063423;28;20055;-67
2023/08/11 04:37:21;;;;;;;14.38;11.15;;;;;;;;;;5062614;28;20122;-66
2023/08/11 04:39:47;;;;;;;14.68;11.00;;;;;;;;;;5055653;28;20177;-61
2023/08/11 04:42:13;;;;;;;13.85;11.57;;;;;;;;;;5043327;28;20140;-67
2023/08/11 04:44:40;;;;;;;14.73;11.80;;;;;;;;;;5056970;28;20056;-65
2023/08/11 04:47:07;;;;;;;15.45;11.90;;;;;;;;;;5058498;28;20293;-67
2023/08/11 04:49:33;;;;;;;17.63;11.50;;;;;;;;;;5054349;28;20182;-62
2023/08/11 04:51:59;;;;;;;15.48;11.50;;;;;;;;;;5044745;28;20103;-67
2023/08/11 04:54:27;;;;;;;12.07;10.55;;;;;;;;;;5062676;28;20059;-68
2023/08/11 04:56:53;;;;;;;18.35;12.20;;;;;;;;;;5063130;28;20052;-68
2023/08/11 04:59:20;;;;;;;13.48;10.45;;;;;;;;;;5058021;28;20058;-63
2023/08/11 05:01:46;;;;;;;15.35;11.98;;;;;;;;;;5051160;28;20053;-62
2023/08/11 05:04:13;;;;;;;14.02;11.43;;;;;;;;;;5063404;28;20515;-64
2023/08/11 05:06:39;;;;;;;14.15;12.63;;;;;;;;;;5062898;28;20128;-64
2023/08/11 05:09:06;;;;;;;14.45;11.07;;;;;;;;;;5059968;28;20136;-67
2023/08/11 05:11:33;;;;;;;13.25;11.50;;;;;;;;;;5046838;28;20049;-67
2023/08/11 05:14:00;;;;;;;14.57;11.10;;;;;;;;;;5042607;28;20485;-63
2023/08/11 05:16:26;;;;;;;14.77;11.23;;;;;;;;;;5051477;28;20730;-67
2023/08/11 05:18:52;;;;;;;14.40;11.15;;;;;;;;;;5062085;28;20192;-62
2023/08/11 05:21:19;;;;;;;15.95;10.80;;;;;;;;;;5042221;28;20111;-67
2023/08/11 05:23:45;;;;;;;11.95;10.57;;;;;;;;;;5042141;28;20595;-65
2023/08/11 05:26:12;;;;;;;15.82;11.48;;;;;;;;;;5042496;28;20092;-63
2023/08/11 05:28:39;;;;;;;15.30;12.23;;;;;;;;;;5043619;28;20184;-69
2023/08/11 05:31:05;;;;;;;13.15;10.45;;;;;;;;;;5059943;28;20146;-63
2023/08/11 05:33:33;;;;;;;14.90;11.85;;;;;;;;;;5056179;28;20390;-69
2023/08/11 05:35:59;;;;;;;15.20;11.05;;;;;;;;;;5042879;28;20103;-69
2023/08/11 05:38:26;;;;;;;14.32;10.60;;;;;;;;;;5044820;28;20292;-66
2023/08/11 05:40:52;;;;;;;12.50;10.45;;;;;;;;;;5047187;28;20590;-70
2023/08/11 05:43:19;;;;;;;15.70;11.07;;;;;;;;;;5047798;28;20053;-69
2023/08/11 05:45:45;;;;;;;13.77;11.15;;;;;;;;;;5055124;28;20337;-66
2023/08/11 05:48:11;;;;;;;12.75;10.02;;;;;;;;;;5075553;28;20053;-68
2023/08/11 05:50:38;;;;;;;16.67;10.40;;;;;;;;;;5061453;28;20057;-70
2023/08/11 05:53:05;;;;;;;18.42;11.15;;;;;;;;;;5064030;28;20135;-70
2023/08/11 05:55:31;;;;;;;15.35;9.88;;;;;;;;;;5061773;28;20076;-63
2023/08/11 05:57:58;;;;;;;14.23;10.90;;;;;;;;;;5058051;28;20049;-69
2023/08/11 06:00:24;;;;;;;12.63;9.50;;;;;;;;;;5062099;28;20504;-67
2023/08/11 06:02:51;;;;;;;18.67;10.85;;;;;;;;;;5057422;28;20136;-65
2023/08/11 06:05:21;;;;;;;15.30;10.52;;;;;;;;;;5059956;28;20103;-63
2023/08/11 06:07:48;;;;;;;13.32;9.38;;;;;;;;;;5055328;28;20056;-63
2023/08/11 06:10:32;;;;;;;14.85;10.48;;;;;;;;;;5062437;28;20061;-64
2023/08/11 06:12:58;;;;;;;16.77;10.80;;;;;;;;;;5045602;28;20183;-66
2023/08/11 06:15:25;;;;;;;12.82;10.32;;;;;;;;;;5044861;28;20054;-67
2023/08/11 06:17:52;;;;;;;12.32;9.60;;;;;;;;;;5050279;28;20049;-66
2023/08/11 06:20:19;;;;;;;14.27;9.55;;;;;;;;;;5065098;28;20064;-69
2023/08/11 06:23:00;;;;;;;12.32;10.25;;;;;;;;;;5048980;28;20050;-68
2023/08/11 06:25:27;;;;;;;14.93;10.52;;;;;;;;;;5044989;28;20049;-69
2023/08/11 06:27:54;;;;;;;17.00;10.15;;;;;;;;;;5045071;28;20061;-67
2023/08/11 06:30:20;;;;;;;17.67;9.70;;;;;;;;;;5049910;28;20523;-68
2023/08/11 06:32:47;;;;;;;11.82;9.30;;;;;;;;;;5064320;28;20053;-64
2023/08/11 06:35:13;;;;;;;13.85;9.70;;;;;;;;;;5061972;28;20510;-68
2023/08/11 06:37:40;;;;;;;16.73;9.45;;;;;;;;;;5056528;28;20057;-67
2023/08/11 06:40:07;;;;;;;15.48;10.27;;;;;;;;;;5056994;28;20500;-70
2023/08/11 06:42:33;;;;;;;14.13;9.55;;;;;;;;;;5064716;28;20061;-66
2023/08/11 06:45:00;;;;;;;14.95;10.68;;;;;;;;;;5079700;28;20575;-68
2023/08/11 06:47:26;;;;;;;15.38;9.70;;;;;;;;;;5042966;28;20058;-65
2023/08/11 06:49:53;;;;;;;17.58;10.82;;;;;;;;;;5048244;28;20781;-70
2023/08/11 06:52:19;;;;;;;13.05;9.93;;;;;;;;;;5058928;28;20526;-65
2023/08/11 06:54:46;;;;;;;13.77;9.15;;;;;;;;;;5075486;28;20114;-67
2023/08/11 06:57:12;;;;;;;14.00;9.38;;;;;;;;;;5065507;28;20050;-69
2023/08/11 06:59:39;;;;;;;13.20;9.45;;;;;;;;;;5064172;28;20496;-67
2023/08/11 07:02:06;;;;;;;14.15;9.77;;;;;;;;;;5074807;28;20158;-69
2023/08/11 07:04:32;;;;;;;16.33;10.23;;;;;;;;;;5045165;28;20260;-65
2023/08/11 07:06:59;;;;;;;14.52;9.75;;;;;;;;;;5045859;28;20054;-69
2023/08/11 07:09:25;;;;;;;11.63;8.50;;;;;;;;;;5057852;28;20405;-68
2023/08/11 07:11:51;;;;;;;15.73;8.48;;;;;;;;;;5065443;28;20060;-63
2023/08/11 07:14:18;;;;;;;15.63;8.95;;;;;;;;;;5056281;28;20061;-63
2023/08/11 07:16:44;;;;;;;13.52;8.40;;;;;;;;;;5061053;28;20516;-64
2023/08/11 07:19:11;;;;;;;12.48;8.95;;;;;;;;;;5053163;28;20498;-67
2023/08/11 07:21:37;;;;;;;11.63;8.27;;;;;;;;;;5050403;28;20534;-66
2023/08/11 07:24:04;;;;;;;12.13;8.07;;;;;;;;;;5045170;28;20532;-65
2023/08/11 07:26:30;;;;;;;16.10;8.90;;;;;;;;;;5064472;28;20053;-66
2023/08/11 07:28:57;;;;;;;15.23;7.63;;;;;;;;;;5062628;28;20181;-64
2023/08/11 07:31:23;;;;;;;14.57;8.32;;;;;;;;;;5054108;28;20061;-66
2023/08/11 07:33:50;;;;;;;12.85;7.90;;;;;;;;;;5058462;28;20110;-68
2023/08/11 07:36:16;;;;;;;10.55;7.40;;;;;;;;;;5049016;28;20045;-62
2023/08/11 07:38:43;;;;;;;9.45;7.40;;;;;;;;;;5055223;28;20651;-66
2023/08/11 07:41:09;;;;;;;13.10;7.80;;;;;;;;;;5062828;28;20052;-66
2023/08/11 07:43:36;;;;;;;10.57;7.03;;;;;;;;;;5063409;28;20119;-64
2023/08/11 07:46:03;;;;;;;11.48;7.43;;;;;;;;;;5064559;28;20103;-64
2023/08/11 07:48:29;;;;;;;8.10;6.75;;;;;;;;;;5063945;28;20067;-65
2023/08/11 07:50:56;;;;;;;11.10;7.15;;;;;;;;;;5063991;28;20568;-64
2023/08/11 07:53:22;;;;;;;8.23;6.05;;;;;;;;;;5063117;28;20099;-66
2023/08/11 07:55:49;;;;;;;12.32;6.80;;;;;;;;;;5063697;28;20467;-67
2023/08/11 07:58:15;;;;;;;8.63;6.20;;;;;;;;;;5063728;28;20060;-65
2023/08/11 08:00:42;;;;;;;9.30;6.45;;;;;;;;;;5063321;28;20053;-66
2023/08/11 08:03:08;;;;;;;13.05;8.18;;;;;;;;;;5061935;28;20102;-63
2023/08/11 08:05:35;;;;;;;11.45;5.65;;;;;;;;;;5063342;28;20514;-66
2023/08/11 08:08:01;;;;;;;9.75;5.88;;;;;;;;;;5044858;28;20061;-66
2023/08/11 08:10:28;;;;;;;8.02;6.15;;;;;;;;;;5043728;28;20076;-66
2023/08/11 08:12:54;;;;;;;8.50;5.80;;;;;;;;;;5043335;28;20054;-61
2023/08/11 08:15:21;;;;;;;8.80;5.60;;;;;;;;;;5042759;28;20294;-63
2023/08/11 08:17:47;;;;;;;7.65;5.07;;;;;;;;;;5043117;28;20057;-61
2023/08/11 08:20:16;;;;;;;7.18;5.00;;;;;;;;;;5043580;28;20057;-62
2023/08/11 08:22:42;;;;;;;9.00;5.53;;;;;;;;;;5044051;28;20061;-67
2023/08/11 08:25:09;;;;;;;13.60;6.55;;;;;;;;;;5043322;28;20129;-61
2023/08/11 08:27:36;;;;;;;9.00;5.18;;;;;;;;;;5041862;28;20059;-65
2023/08/11 08:30:05;;;;;;;8.25;5.32;;;;;;;;;;5042726;28;20050;-60
2023/08/11 08:32:32;;;;;;;8.70;5.82;;;;;;;;;;5042226;28;20059;-63
2023/08/11 08:34:58;;;;;;;6.20;4.82;;;;;;;;;;5043209;28;20049;-64
2023/08/11 08:37:28;;;;;;;7.88;5.05;;;;;;;;;;5061157;28;20048;-66
2023/08/11 08:39:55;;;;;;;7.25;4.88;;;;;;;;;;5063246;28;20111;-66
2023/08/11 08:42:21;;;;;;;7.60;4.40;;;;;;;;;;5063070;28;20559;-62
2023/08/11 08:44:49;;;;;;;7.65;4.40;;;;;;;;;;5062806;28;20103;-61
2023/08/11 08:47:16;;;;;;;5.25;3.60;;;;;;;;;;5060160;28;20056;-61
2023/08/11 08:49:43;;;;;;;5.93;4.22;;;;;;;;;;5056784;28;20128;-61
2023/08/11 08:52:09;;;;;;;7.63;4.13;;;;;;;;;;5071845;28;20053;-61
2023/08/11 08:54:36;;;;;;;6.55;4.30;;;;;;;;;;5057536;28;20053;-61
2023/08/11 08:57:04;;;;;;;5.72;4.10;;;;;;;;;;5052311;28;20140;-61
2023/08/11 08:59:30;;;;;;;7.93;4.55;;;;;;;;;;5056807;28;20512;-62
2023/08/11 09:01:58;;;;;;;4.25;3.67;;;;;;;;;;5061967;28;20107;-61
2023/08/11 09:04:26;;;;;;;12.13;4.55;;;;;;;;;;5044689;28;20073;-61
2023/08/11 09:06:53;;;;;;;5.18;4.10;;;;;;;;;;5057020;28;20080;-61
2023/08/11 09:09:20;;;;;;;5.03;3.88;;;;;;;;;;5054216;28;20531;-61
2023/08/11 09:11:48;;;;;;;5.13;4.18;;;;;;;;;;5055989;28;20053;-62
2023/08/11 09:14:16;;;;;;;5.30;4.10;;;;;;;;;;5065643;28;20068;-61
2023/08/11 09:16:43;;;;;;;6.28;4.13;;;;;;;;;;5066844;28;20060;-61
2023/08/11 09:19:10;;;;;;;5.47;3.45;;;;;;;;;;5064752;28;20278;-60
2023/08/11 09:21:39;;;;;;;7.40;3.17;;;;;;;;;;5064513;28;20056;-62
2023/08/11 09:24:09;;;;;;;8.63;3.28;;;;;;;;;;5066118;28;20130;-62
2023/08/11 09:26:35;;;;;;;5.32;3.50;;;;;;;;;;5063259;28;20107;-59
2023/08/11 09:29:03;;;;;;;5.00;3.28;;;;;;;;;;5069610;28;20066;-59
2023/08/11 09:31:30;;;;;;;4.90;2.83;;;;;;;;;;5051500;28;20053;-57
2023/08/11 09:33:56;;;;;;;3.50;3.10;;;;;;;;;;5062526;28;20079;-59
2023/08/11 09:36:23;;;;;;;4.60;3.53;;;;;;;;;;5065492;28;20049;-59
2023/08/11 09:38:49;;;;;;;3.75;2.88;;;;;;;;;;5065558;28;20570;-60
2023/08/11 09:41:16;;;;;;;5.05;2.45;;;;;;;;;;5063477;28;20103;-61
2023/08/11 09:43:49;;;;;;;5.25;3.05;;;;;;;;;;5057532;28;20073;-61
2023/08/11 09:46:16;;;;;;;4.40;2.47;;;;;;;;;;5060779;28;20137;-61
2023/08/11 09:48:54;;;;;;;4.45;2.60;;;;;;;;;;5056655;28;20139;-61
2023/08/11 09:51:21;;;;;;;9.70;2.78;;;;;;;;;;5047621;28;20064;-60
2023/08/11 09:53:48;;;;;;;4.30;2.70;;;;;;;;;;5049867;28;20491;-61
2023/08/11 09:56:16;;;;;;;2.97;2.30;;;;;;;;;;5061033;28;20110;-61
2023/08/11 09:58:45;;;;;;;2.90;2.35;;;;;;;;;;5064679;28;20134;-61
2023/08/11 10:01:12;;;;;;;4.68;2.50;;;;;;;;;;5062015;28;20053;-62
2023/08/11 10:03:47;;;;;;;3.35;2.20;;;;;;;;;;5064935;28;20061;-61
2023/08/11 10:06:18;;;;;;;4.00;2.67;;;;;;;;;;5058362;28;20053;-60
2023/08/11 10:08:45;;;;;;;4.10;2.22;;;;;;;;;;5065383;28;20057;-61
2023/08/11 10:11:12;;;;;;;2.55;2.35;;;;;;;;;;5065738;28;20507;-62
2023/08/11 10:13:41;;;;;;;3.85;2.22;;;;;;;;;;5057621;28;20057;-60
2023/08/11 10:16:08;;;;;;;3.22;2.42;;;;;;;;;;5066265;28;20215;-61
2023/08/11 10:18:35;;;;;;;3.28;2.10;;;;;;;;;;5064944;28;20106;-61
2023/08/11 10:21:02;;;;;;;2.85;2.42;;;;;;;;;;5069018;28;20143;-61
2023/08/11 10:23:29;;;;;;;4.72;2.42;;;;;;;;;;5061936;28;20091;-60
2023/08/11 10:25:55;;;;;;;2.40;2.20;;;;;;;;;;5063796;28;20050;-61
2023/08/11 10:28:22;;;;;;;3.10;2.25;;;;;;;;;;5063053;28;20142;-61
2023/08/11 10:30:58;;;;;;;4.22;2.10;;;;;;;;;;5064645;28;20132;-61
2023/08/11 10:33:31;;;;;;;5.53;2.40;;;;;;;;;;5059773;28;20060;-61
2023/08/11 10:35:59;;;;;;;2.80;2.40;;;;;;;;;;5065810;28;20096;-62
2023/08/11 10:38:30;;;;;;;4.25;2.17;;;;;;;;;;5061266;28;21784;-62
2023/08/11 10:41:00;;;;;;;8.68;2.58;;;;;;;;;;5068862;28;20385;-63
2023/08/11 10:43:33;;;;;;;3.75;2.55;;;;;;;;;;5062779;28;20065;-61
2023/08/11 10:46:35;;;;;;;3.17;2.08;;;;;;;;;;5064652;28;20057;-61
2023/08/11 10:49:04;;;;;;;3.67;2.10;;;;;;;;;;5020636;28;20141;-61
2023/08/11 10:51:32;;;;;;;3.70;2.22;;;;;;;;;;5009070;28;20069;-61
2023/08/11 10:54:10;;;;;;;2.08;1.88;;;;;;;;;;5009687;28;20424;-61
2023/08/11 10:56:39;;;;;;;5.10;2.33;;;;;;;;;;5018148;28;20105;-63
2023/08/11 10:59:06;;;;;;;3.58;2.47;;;;;;;;;;5021215;28;20594;-62
2023/08/11 11:01:36;;;;;;;5.25;2.33;;;;;;;;;;5019564;28;20112;-61
2023/08/11 11:04:04;;;;;;;2.75;2.05;;;;;;;;;;5020069;28;20369;-61
2023/08/11 11:06:30;;;;;;;6.68;2.22;;;;;;;;;;5015635;28;20438;-62
2023/08/11 11:08:57;;;;;;;2.72;2.33;;;;;;;;;;5019305;28;20540;-61
2023/08/11 11:11:24;;;;;;;3.78;2.50;;;;;;;;;;5018358;28;20490;-62
2023/08/11 11:13:51;;;;;;;2.72;2.13;;;;;;;;;;5017116;28;20081;-61
2023/08/11 11:16:20;;;;;;;3.45;2.05;;;;;;;;;;5016669;28;20165;-61
2023/08/11 11:18:47;;;;;;;4.28;1.90;;;;;;;;;;5014138;28;20132;-62
2023/08/11 11:21:14;;;;;;;5.28;2.60;;;;;;;;;;5020403;28;20222;-61
2023/08/11 11:23:48;;;;;;;2.35;2.10;;;;;;;;;;5049393;28;20056;-62
2023/08/11 11:26:19;;;;;;;2.80;2.13;;;;;;;;;;5056957;28;20508;-61
2023/08/11 11:28:46;;;;;;;4.40;1.98;;;;;;;;;;5046084;28;20049;-62
2023/08/11 11:31:14;;;;;;;4.47;2.25;;;;;;;;;;5050757;28;20498;-63
2023/08/11 11:33:40;;;;;;;2.47;2.05;;;;;;;;;;5050702;28;20147;-61
2023/08/11 11:36:07;;;;;;;4.80;2.38;;;;;;;;;;5061190;28;20053;-61
2023/08/11 11:38:33;;;;;;;6.75;2.30;;;;;;;;;;5061571;28;21117;-61
2023/08/11 11:41:00;;;;;;;3.47;2.00;;;;;;;;;;5060126;28;20654;-62
2023/08/11 11:43:26;;;;;;;3.85;2.45;;;;;;;;;;5063481;28;20136;-62
2023/08/11 11:45:53;;;;;;;4.70;2.28;;;;;;;;;;5060935;28;20796;-62
2023/08/11 11:48:20;;;;;;;3.92;2.28;;;;;;;;;;5063121;28;20088;-61
2023/08/11 11:50:47;;;;;;;3.15;2.33;;;;;;;;;;5056998;28;20111;-62
2023/08/11 11:53:13;;;;;;;2.70;2.00;;;;;;;;;;5063525;28;20106;-61
2023/08/11 11:55:46;;;;;;;2.97;2.00;;;;;;;;;;5056469;28;20083;-62
2023/08/11 11:58:13;;;;;;;4.30;2.35;;;;;;;;;;5053867;28;20103;-63
2023/08/11 12:00:40;;;;;;;4.80;2.42;;;;;;;;;;5060861;28;20080;-63
2023/08/11 12:03:06;;;;;;;2.40;2.00;;;;;;;;;;5057669;28;20073;-61
2023/08/11 12:05:33;;;;;;;2.05;1.85;;;;;;;;;;5057900;28;20144;-60
2023/08/11 12:08:00;;;;;;;2.95;2.08;;;;;;;;;;5055601;28;20147;-63
2023/08/11 12:10:30;;;;;;;3.15;2.17;;;;;;;;;;5050574;28;20055;-62
2023/08/11 12:13:00;;;;;;;6.00;2.10;;;;;;;;;;5048418;28;20474;-62
2023/08/11 12:15:28;;;;;;;7.38;2.47;;;;;;;;;;5060678;28;20061;-61
2023/08/11 12:17:54;;;;;;;4.03;2.28;;;;;;;;;;5062174;28;20547;-62
2023/08/11 12:20:24;;;;;;;4.72;2.10;;;;;;;;;;5061089;28;20522;-61
2023/08/11 12:22:50;;;;;;;6.47;2.33;;;;;;;;;;5060740;28;20064;-61
2023/08/11 12:25:17;;;;;;;1.92;1.75;;;;;;;;;;5049813;28;20788;-61
2023/08/11 12:27:44;;;;;;;4.07;2.00;;;;;;;;;;5054775;28;20049;-61
2023/08/11 12:30:10;;;;;;;4.53;2.03;;;;;;;;;;5062059;28;20169;-61
2023/08/11 12:32:37;;;;;;;5.18;2.40;;;;;;;;;;5063981;28;20542;-61
2023/08/11 12:35:04;;;;;;;4.80;2.20;;;;;;;;;;5056513;28;21810;-61
2023/08/11 12:37:30;;;;;;;7.65;1.98;;;;;;;;;;5055221;28;20053;-61
2023/08/11 12:39:56;;;;;;;5.32;2.33;;;;;;;;;;5066437;28;20142;-61
2023/08/11 12:42:23;;;;;;;6.05;3.30;;;;;;;;;;5069213;28;20139;-62
2023/08/11 12:44:49;;;;;;;3.65;2.38;;;;;;;;;;5054430;28;20138;-61
2023/08/11 12:47:15;;;;;;;5.85;2.35;;;;;;;;;;5053208;28;20087;-62
2023/08/11 12:49:42;;;;;;;4.38;2.20;;;;;;;;;;5060042;28;20472;-61
2023/08/11 12:52:08;;;;;;;4.75;2.30;;;;;;;;;;5058766;28;20457;-62
2023/08/11 12:54:35;;;;;;;3.25;2.13;;;;;;;;;;5045245;28;20165;-62
2023/08/11 12:57:01;;;;;;;9.02;3.13;;;;;;;;;;5044032;28;20152;-61
2023/08/11 12:59:28;;;;;;;4.97;3.10;;;;;;;;;;5044427;28;20058;-62
2023/08/11 13:01:55;;;;;;;10.70;2.90;;;;;;;;;;5060769;28;20518;-62
2023/08/11 13:04:21;;;;;;;5.82;2.92;;;;;;;;;;5055293;28;20508;-62
2023/08/11 13:06:48;;;;;;;5.03;2.70;;;;;;;;;;5059614;28;20057;-61
2023/08/11 13:09:15;;;;;;;4.50;3.13;;;;;;;;;;5059338;28;20528;-63
2023/08/11 13:11:42;;;;;;;5.25;2.72;;;;;;;;;;5057985;28;20589;-62
2023/08/11 13:14:10;;;;;;;4.80;3.25;;;;;;;;;;5050487;28;20508;-61
2023/08/11 13:16:36;;;;;;;6.10;3.38;;;;;;;;;;5060634;28;20060;-63
2023/08/11 13:19:03;;;;;;;9.07;4.50;;;;;;;;;;5061779;28;20492;-62
2023/08/11 13:21:30;;;;;;;4.55;3.90;;;;;;;;;;5059911;28;20523;-62
2023/08/11 13:23:58;;;;;;;7.30;3.97;;;;;;;;;;5061241;28;20149;-63
2023/08/11 13:26:25;;;;;;;6.28;2.95;;;;;;;;;;5060052;28;20064;-61
2023/08/11 13:28:51;;;;;;;4.97;3.42;;;;;;;;;;5051851;28;20056;-60
2023/08/11 13:31:18;;;;;;;5.75;2.63;;;;;;;;;;5073248;28;20164;-62
2023/08/11 13:33:45;;;;;;;2.50;2.30;;;;;;;;;;5065007;28;20052;-61
2023/08/11 13:36:12;;;;;;;2.97;2.47;;;;;;;;;;5060337;28;20060;-61
2023/08/11 13:38:38;;;;;;;4.03;2.67;;;;;;;;;;5061689;28;20523;-61
2023/08/11 13:41:04;;;;;;;3.20;2.53;;;;;;;;;;5059977;28;20103;-61
2023/08/11 13:43:34;;;;;;;3.15;2.30;;;;;;;;;;5060448;28;20049;-61
2023/08/11 13:46:00;;;;;;;4.53;2.90;;;;;;;;;;5059945;28;20088;-60
2023/08/11 13:48:27;;;;;;;6.15;2.30;;;;;;;;;;5057126;28;20864;-61
2023/08/11 13:50:56;;;;;;;4.38;2.63;;;;;;;;;;5060580;28;20131;-60
2023/08/11 13:53:25;;;;;;;3.50;2.55;;;;;;;;;;5060456;28;20144;-61
2023/08/11 13:55:51;;;;;;;10.07;2.97;;;;;;;;;;5059329;28;20136;-61
2023/08/11 13:58:17;;;;;;;4.57;2.67;;;;;;;;;;5047166;28;20056;-60
2023/08/11 14:00:44;;;;;;;8.23;2.60;;;;;;;;;;5045985;28;20543;-61
2023/08/11 14:03:11;;;;;;;3.97;2.70;;;;;;;;;;5064333;28;20060;-59
2023/08/11 14:05:37;;;;;;;4.70;2.55;;;;;;;;;;5051395;28;20141;-61
2023/08/11 14:08:04;;;;;;;2.88;2.58;;;;;;;;;;5052297;28;20049;-61
2023/08/11 14:10:30;;;;;;;8.82;2.92;;;;;;;;;;5050610;28;20057;-61
2023/08/11 14:12:56;;;;;;;2.58;2.38;;;;;;;;;;5064813;28;20053;-61
2023/08/11 14:15:23;;;;;;;6.97;3.03;;;;;;;;;;5059606;28;20052;-61
2023/08/11 14:17:49;;;;;;;5.55;2.90;;;;;;;;;;5054821;28;20064;-61
2023/08/11 14:20:16;;;;;;;4.88;3.33;;;;;;;;;;5057494;28;20148;-61
2023/08/11 14:22:43;;;;;;;5.25;3.00;;;;;;;;;;5063423;28;20655;-61
2023/08/11 14:25:09;;;;;;;7.47;3.17;;;;;;;;;;5072974;28;20063;-60
2023/08/11 14:27:36;;;;;;;6.07;3.05;;;;;;;;;;5061849;28;20045;-62
2023/08/11 14:30:02;;;;;;;7.63;3.75;;;;;;;;;;5056751;28;20765;-61
2023/08/11 14:32:29;;;;;;;5.20;3.55;;;;;;;;;;5060572;28;20140;-61
2023/08/11 14:34:56;;;;;;;6.63;3.20;;;;;;;;;;5068929;28;20063;-61